<?xml version="1.0" encoding="UTF-8" standalone="no" ?>
<gpx xmlns="http://www.topografix.com/GPX/1/1" xmlns:xsi="http://www.w3.org/2001/XMLSchema-instance" xsi:schemaLocation="http://www.topografix.com/GPX/1/1 http://www.topografix.com/GPX/1/1/gpx.xsd" version="1.1" creator="VisuGPX - https://www.visugpx.com">
  <metadata>
    <name>Asnières-sous-Bois Crai</name>
    <desc><![CDATA[Asnières-sous-Bois, Crai
Dist 12 km     dev+20]]></desc>
  </metadata>
  <trk>
    <name><![CDATA[12762758-Asnières-sous-Bois ]]></name>
    <extensions>
      <line xmlns="http://www.topografix.com/GPX/gpx_style/0/2">
        <color>0000FF</color>
        <width>4</width>
      </line>
    </extensions>
    <trkseg>
      <trkpt lat="47.48215" lon="3.64761">
        <ele>206</ele>
        <time>2021-03-29T06:29:26Z</time>
      </trkpt>
      <trkpt lat="47.48146" lon="3.64761">
        <ele>208</ele>
        <time>2021-03-29T06:30:58Z</time>
      </trkpt>
      <trkpt lat="47.481" lon="3.64754">
        <ele>209</ele>
        <time>2021-03-29T06:32:00Z</time>
      </trkpt>
      <trkpt lat="47.48081" lon="3.64731">
        <ele>208</ele>
        <time>2021-03-29T06:32:33Z</time>
      </trkpt>
      <trkpt lat="47.4806" lon="3.64705">
        <ele>208</ele>
        <time>2021-03-29T06:33:09Z</time>
      </trkpt>
      <trkpt lat="47.48024" lon="3.64675">
        <ele>208</ele>
        <time>2021-03-29T06:34:04Z</time>
      </trkpt>
      <trkpt lat="47.47972" lon="3.64678">
        <ele>209</ele>
        <time>2021-03-29T06:35:14Z</time>
      </trkpt>
      <trkpt lat="47.47925" lon="3.64654">
        <ele>209</ele>
        <time>2021-03-29T06:36:20Z</time>
      </trkpt>
      <trkpt lat="47.47854" lon="3.6465">
        <ele>211</ele>
        <time>2021-03-29T06:37:55Z</time>
      </trkpt>
      <trkpt lat="47.47777" lon="3.64614">
        <ele>214</ele>
        <time>2021-03-29T06:39:43Z</time>
      </trkpt>
      <trkpt lat="47.47691" lon="3.64593">
        <ele>219</ele>
        <time>2021-03-29T06:41:39Z</time>
      </trkpt>
      <trkpt lat="47.47572" lon="3.64549">
        <ele>231</ele>
        <time>2021-03-29T06:44:23Z</time>
      </trkpt>
      <trkpt lat="47.47511" lon="3.64523">
        <ele>238</ele>
        <time>2021-03-29T06:45:47Z</time>
      </trkpt>
      <trkpt lat="47.47463" lon="3.64485">
        <ele>242</ele>
        <time>2021-03-29T06:47:00Z</time>
      </trkpt>
      <trkpt lat="47.47381" lon="3.64489">
        <ele>251</ele>
        <time>2021-03-29T06:48:49Z</time>
      </trkpt>
      <trkpt lat="47.47318" lon="3.64406">
        <ele>259</ele>
        <time>2021-03-29T06:50:42Z</time>
      </trkpt>
      <trkpt lat="47.47242" lon="3.64337">
        <ele>265</ele>
        <time>2021-03-29T06:52:41Z</time>
      </trkpt>
      <trkpt lat="47.47181" lon="3.64262">
        <ele>267</ele>
        <time>2021-03-29T06:54:27Z</time>
      </trkpt>
      <trkpt lat="47.47108" lon="3.64166">
        <ele>265</ele>
        <time>2021-03-29T06:56:37Z</time>
      </trkpt>
      <trkpt lat="47.47026" lon="3.64029">
        <ele>258</ele>
        <time>2021-03-29T06:59:22Z</time>
      </trkpt>
      <trkpt lat="47.46939" lon="3.63955">
        <ele>252</ele>
        <time>2021-03-29T07:01:36Z</time>
      </trkpt>
      <trkpt lat="47.46851" lon="3.63966">
        <ele>253</ele>
        <time>2021-03-29T07:03:34Z</time>
      </trkpt>
      <trkpt lat="47.46719" lon="3.63845">
        <ele>245</ele>
        <time>2021-03-29T07:07:01Z</time>
      </trkpt>
      <trkpt lat="47.46728" lon="3.63931">
        <ele>249</ele>
        <time>2021-03-29T07:08:20Z</time>
      </trkpt>
      <trkpt lat="47.46693" lon="3.6399">
        <ele>251</ele>
        <time>2021-03-29T07:09:31Z</time>
      </trkpt>
      <trkpt lat="47.46551" lon="3.64171">
        <ele>259</ele>
        <time>2021-03-29T07:13:41Z</time>
      </trkpt>
      <trkpt lat="47.46532" lon="3.64232">
        <ele>260</ele>
        <time>2021-03-29T07:14:41Z</time>
      </trkpt>
      <trkpt lat="47.46531" lon="3.64344">
        <ele>261</ele>
        <time>2021-03-29T07:16:22Z</time>
      </trkpt>
      <trkpt lat="47.46275" lon="3.64368">
        <ele>260</ele>
        <time>2021-03-29T07:22:05Z</time>
      </trkpt>
      <trkpt lat="47.46186" lon="3.64336">
        <ele>260</ele>
        <time>2021-03-29T07:24:07Z</time>
      </trkpt>
      <trkpt lat="47.46057" lon="3.64328">
        <ele>257</ele>
        <time>2021-03-29T07:26:59Z</time>
      </trkpt>
      <trkpt lat="47.4604" lon="3.64433">
        <ele>245</ele>
        <time>2021-03-29T07:28:37Z</time>
      </trkpt>
      <trkpt lat="47.46066" lon="3.64539">
        <ele>237</ele>
        <time>2021-03-29T07:30:18Z</time>
      </trkpt>
      <trkpt lat="47.46101" lon="3.64684">
        <ele>226</ele>
        <time>2021-03-29T07:32:37Z</time>
      </trkpt>
      <trkpt lat="47.46182" lon="3.64779">
        <ele>221</ele>
        <time>2021-03-29T07:34:55Z</time>
      </trkpt>
      <trkpt lat="47.46229" lon="3.64938">
        <ele>217</ele>
        <time>2021-03-29T07:37:32Z</time>
      </trkpt>
      <trkpt lat="47.46292" lon="3.65101">
        <ele>207</ele>
        <time>2021-03-29T07:40:21Z</time>
      </trkpt>
      <trkpt lat="47.46257" lon="3.65191">
        <ele>199</ele>
        <time>2021-03-29T07:41:55Z</time>
      </trkpt>
      <trkpt lat="47.46236" lon="3.65279">
        <ele>203</ele>
        <time>2021-03-29T07:43:19Z</time>
      </trkpt>
      <trkpt lat="47.46283" lon="3.65344">
        <ele>204</ele>
        <time>2021-03-29T07:44:45Z</time>
      </trkpt>
      <trkpt lat="47.46376" lon="3.65431">
        <ele>206</ele>
        <time>2021-03-29T07:47:12Z</time>
      </trkpt>
      <trkpt lat="47.46385" lon="3.65416">
        <ele>205</ele>
        <time>2021-03-29T07:47:30Z</time>
      </trkpt>
      <trkpt lat="47.46397" lon="3.65388">
        <ele>202</ele>
        <time>2021-03-29T07:48:00Z</time>
      </trkpt>
      <trkpt lat="47.4644" lon="3.65345">
        <ele>203</ele>
        <time>2021-03-29T07:49:09Z</time>
      </trkpt>
      <trkpt lat="47.46498" lon="3.65306">
        <ele>211</ele>
        <time>2021-03-29T07:50:34Z</time>
      </trkpt>
      <trkpt lat="47.46557" lon="3.65266">
        <ele>221</ele>
        <time>2021-03-29T07:52:01Z</time>
      </trkpt>
      <trkpt lat="47.46614" lon="3.6523">
        <ele>225</ele>
        <time>2021-03-29T07:53:23Z</time>
      </trkpt>
      <trkpt lat="47.46718" lon="3.65259">
        <ele>240</ele>
        <time>2021-03-29T07:55:45Z</time>
      </trkpt>
      <trkpt lat="47.46811" lon="3.65296">
        <ele>239</ele>
        <time>2021-03-29T07:57:53Z</time>
      </trkpt>
      <trkpt lat="47.46878" lon="3.65344">
        <ele>238</ele>
        <time>2021-03-29T07:59:32Z</time>
      </trkpt>
      <trkpt lat="47.46976" lon="3.65467">
        <ele>232</ele>
        <time>2021-03-29T08:02:24Z</time>
      </trkpt>
      <trkpt lat="47.47012" lon="3.65532">
        <ele>230</ele>
        <time>2021-03-29T08:03:40Z</time>
      </trkpt>
      <trkpt lat="47.47038" lon="3.65626">
        <ele>229</ele>
        <time>2021-03-29T08:05:11Z</time>
      </trkpt>
      <trkpt lat="47.47097" lon="3.65731">
        <ele>228</ele>
        <time>2021-03-29T08:07:15Z</time>
      </trkpt>
      <trkpt lat="47.47161" lon="3.65822">
        <ele>230</ele>
        <time>2021-03-29T08:09:13Z</time>
      </trkpt>
      <trkpt lat="47.47235" lon="3.65869">
        <ele>229</ele>
        <time>2021-03-29T08:11:00Z</time>
      </trkpt>
      <trkpt lat="47.47277" lon="3.65836">
        <ele>222</ele>
        <time>2021-03-29T08:12:04Z</time>
      </trkpt>
      <trkpt lat="47.47314" lon="3.65783">
        <ele>209</ele>
        <time>2021-03-29T08:13:13Z</time>
      </trkpt>
      <trkpt lat="47.47342" lon="3.65802">
        <ele>206</ele>
        <time>2021-03-29T08:13:54Z</time>
      </trkpt>
      <trkpt lat="47.47361" lon="3.6591">
        <ele>212</ele>
        <time>2021-03-29T08:15:34Z</time>
      </trkpt>
      <trkpt lat="47.47381" lon="3.66015">
        <ele>215</ele>
        <time>2021-03-29T08:17:13Z</time>
      </trkpt>
      <trkpt lat="47.47416" lon="3.65995">
        <ele>211</ele>
        <time>2021-03-29T08:18:03Z</time>
      </trkpt>
      <trkpt lat="47.47471" lon="3.66072">
        <ele>222</ele>
        <time>2021-03-29T08:19:44Z</time>
      </trkpt>
      <trkpt lat="47.47496" lon="3.661">
        <ele>224</ele>
        <time>2021-03-29T08:20:26Z</time>
      </trkpt>
      <trkpt lat="47.47519" lon="3.66158">
        <ele>229</ele>
        <time>2021-03-29T08:21:26Z</time>
      </trkpt>
      <trkpt lat="47.47569" lon="3.66263">
        <ele>235</ele>
        <time>2021-03-29T08:23:22Z</time>
      </trkpt>
      <trkpt lat="47.47611" lon="3.66344">
        <ele>238</ele>
        <time>2021-03-29T08:24:54Z</time>
      </trkpt>
      <trkpt lat="47.47673" lon="3.66402">
        <ele>243</ele>
        <time>2021-03-29T08:26:32Z</time>
      </trkpt>
      <trkpt lat="47.4772" lon="3.66492">
        <ele>245</ele>
        <time>2021-03-29T08:28:15Z</time>
      </trkpt>
      <trkpt lat="47.47769" lon="3.6658">
        <ele>248</ele>
        <time>2021-03-29T08:29:58Z</time>
      </trkpt>
      <trkpt lat="47.47784" lon="3.66646">
        <ele>251</ele>
        <time>2021-03-29T08:31:00Z</time>
      </trkpt>
      <trkpt lat="47.4779" lon="3.66715">
        <ele>253</ele>
        <time>2021-03-29T08:32:03Z</time>
      </trkpt>
      <trkpt lat="47.47801" lon="3.66751">
        <ele>255</ele>
        <time>2021-03-29T08:32:39Z</time>
      </trkpt>
      <trkpt lat="47.47778" lon="3.66779">
        <ele>254</ele>
        <time>2021-03-29T08:33:19Z</time>
      </trkpt>
      <trkpt lat="47.4776" lon="3.6688">
        <ele>256</ele>
        <time>2021-03-29T08:34:53Z</time>
      </trkpt>
      <trkpt lat="47.47716" lon="3.66964">
        <ele>259</ele>
        <time>2021-03-29T08:36:29Z</time>
      </trkpt>
      <trkpt lat="47.47667" lon="3.67057">
        <ele>264</ele>
        <time>2021-03-29T08:38:15Z</time>
      </trkpt>
      <trkpt lat="47.47632" lon="3.67165">
        <ele>273</ele>
        <time>2021-03-29T08:40:03Z</time>
      </trkpt>
      <trkpt lat="47.47615" lon="3.67272">
        <ele>275</ele>
        <time>2021-03-29T08:41:42Z</time>
      </trkpt>
      <trkpt lat="47.47612" lon="3.67324">
        <ele>274</ele>
        <time>2021-03-29T08:42:29Z</time>
      </trkpt>
      <trkpt lat="47.47672" lon="3.67352">
        <ele>270</ele>
        <time>2021-03-29T08:43:53Z</time>
      </trkpt>
      <trkpt lat="47.47715" lon="3.67338">
        <ele>270</ele>
        <time>2021-03-29T08:44:52Z</time>
      </trkpt>
      <trkpt lat="47.47688" lon="3.67449">
        <ele>269</ele>
        <time>2021-03-29T08:46:38Z</time>
      </trkpt>
      <trkpt lat="47.47652" lon="3.67612">
        <ele>267</ele>
        <time>2021-03-29T08:49:13Z</time>
      </trkpt>
      <trkpt lat="47.47604" lon="3.67746">
        <ele>263</ele>
        <time>2021-03-29T08:51:30Z</time>
      </trkpt>
      <trkpt lat="47.47696" lon="3.6773">
        <ele>262</ele>
        <time>2021-03-29T08:53:33Z</time>
      </trkpt>
      <trkpt lat="47.47735" lon="3.67712">
        <ele>261</ele>
        <time>2021-03-29T08:54:28Z</time>
      </trkpt>
      <trkpt lat="47.47847" lon="3.67622">
        <ele>264</ele>
        <time>2021-03-29T08:57:18Z</time>
      </trkpt>
      <trkpt lat="47.47965" lon="3.67535">
        <ele>270</ele>
        <time>2021-03-29T09:00:14Z</time>
      </trkpt>
      <trkpt lat="47.48079" lon="3.67433">
        <ele>268</ele>
        <time>2021-03-29T09:03:12Z</time>
      </trkpt>
      <trkpt lat="47.48167" lon="3.6737">
        <ele>272</ele>
        <time>2021-03-29T09:05:22Z</time>
      </trkpt>
      <trkpt lat="47.48225" lon="3.67315">
        <ele>272</ele>
        <time>2021-03-29T09:06:54Z</time>
      </trkpt>
      <trkpt lat="47.48273" lon="3.67261">
        <ele>274</ele>
        <time>2021-03-29T09:08:15Z</time>
      </trkpt>
      <trkpt lat="47.48363" lon="3.67194">
        <ele>275</ele>
        <time>2021-03-29T09:10:29Z</time>
      </trkpt>
      <trkpt lat="47.48492" lon="3.67126">
        <ele>276</ele>
        <time>2021-03-29T09:13:32Z</time>
      </trkpt>
      <trkpt lat="47.48627" lon="3.67007">
        <ele>272</ele>
        <time>2021-03-29T09:17:01Z</time>
      </trkpt>
      <trkpt lat="47.48666" lon="3.6694">
        <ele>269</ele>
        <time>2021-03-29T09:18:21Z</time>
      </trkpt>
      <trkpt lat="47.48709" lon="3.66883">
        <ele>266</ele>
        <time>2021-03-29T09:19:38Z</time>
      </trkpt>
      <trkpt lat="47.48769" lon="3.66781">
        <ele>262</ele>
        <time>2021-03-29T09:21:40Z</time>
      </trkpt>
      <trkpt lat="47.48848" lon="3.66648">
        <ele>257</ele>
        <time>2021-03-29T09:24:20Z</time>
      </trkpt>
      <trkpt lat="47.48908" lon="3.66579">
        <ele>247</ele>
        <time>2021-03-29T09:26:01Z</time>
      </trkpt>
      <trkpt lat="47.48878" lon="3.66561">
        <ele>248</ele>
        <time>2021-03-29T09:26:44Z</time>
      </trkpt>
      <trkpt lat="47.48879" lon="3.66482">
        <ele>243</ele>
        <time>2021-03-29T09:27:56Z</time>
      </trkpt>
      <trkpt lat="47.48893" lon="3.66372">
        <ele>239</ele>
        <time>2021-03-29T09:29:37Z</time>
      </trkpt>
      <trkpt lat="47.48879" lon="3.66292">
        <ele>241</ele>
        <time>2021-03-29T09:30:51Z</time>
      </trkpt>
      <trkpt lat="47.48854" lon="3.66197">
        <ele>245</ele>
        <time>2021-03-29T09:32:23Z</time>
      </trkpt>
      <trkpt lat="47.48827" lon="3.66101">
        <ele>249</ele>
        <time>2021-03-29T09:33:57Z</time>
      </trkpt>
      <trkpt lat="47.48809" lon="3.66016">
        <ele>252</ele>
        <time>2021-03-29T09:35:17Z</time>
      </trkpt>
      <trkpt lat="47.48779" lon="3.65899">
        <ele>256</ele>
        <time>2021-03-29T09:37:10Z</time>
      </trkpt>
      <trkpt lat="47.48707" lon="3.65841">
        <ele>251</ele>
        <time>2021-03-29T09:38:59Z</time>
      </trkpt>
      <trkpt lat="47.4863" lon="3.65763">
        <ele>246</ele>
        <time>2021-03-29T09:41:04Z</time>
      </trkpt>
      <trkpt lat="47.48555" lon="3.65726">
        <ele>243</ele>
        <time>2021-03-29T09:42:49Z</time>
      </trkpt>
      <trkpt lat="47.48538" lon="3.65627">
        <ele>238</ele>
        <time>2021-03-29T09:44:22Z</time>
      </trkpt>
      <trkpt lat="47.48536" lon="3.65511">
        <ele>235</ele>
        <time>2021-03-29T09:46:06Z</time>
      </trkpt>
      <trkpt lat="47.48526" lon="3.65451">
        <ele>231</ele>
        <time>2021-03-29T09:47:02Z</time>
      </trkpt>
      <trkpt lat="47.48474" lon="3.65234">
        <ele>212</ele>
        <time>2021-03-29T09:50:30Z</time>
      </trkpt>
      <trkpt lat="47.48378" lon="3.65162">
        <ele>198</ele>
        <time>2021-03-29T09:52:53Z</time>
      </trkpt>
      <trkpt lat="47.48282" lon="3.6513">
        <ele>188</ele>
        <time>2021-03-29T09:55:05Z</time>
      </trkpt>
      <trkpt lat="47.48229" lon="3.65121">
        <ele>184</ele>
        <time>2021-03-29T09:56:16Z</time>
      </trkpt>
      <trkpt lat="47.48224" lon="3.64993">
        <ele>178</ele>
        <time>2021-03-29T09:58:11Z</time>
      </trkpt>
      <trkpt lat="47.4822" lon="3.64949">
        <ele>182</ele>
        <time>2021-03-29T09:58:51Z</time>
      </trkpt>
      <trkpt lat="47.48201" lon="3.64905">
        <ele>188</ele>
        <time>2021-03-29T09:59:38Z</time>
      </trkpt>
      <trkpt lat="47.48215" lon="3.64866">
        <ele>195</ele>
        <time>2021-03-29T10:00:18Z</time>
      </trkpt>
      <trkpt lat="47.4825" lon="3.64821">
        <ele>201</ele>
        <time>2021-03-29T10:01:20Z</time>
      </trkpt>
      <trkpt lat="47.48234" lon="3.648">
        <ele>203</ele>
        <time>2021-03-29T10:01:49Z</time>
      </trkpt>
      <trkpt lat="47.4823" lon="3.64761">
        <ele>205</ele>
        <time>2021-03-29T10:02:24Z</time>
      </trkpt>
    </trkseg>
  </trk>
</gpx>